sensor_id;sensor_type;location;lat;lon;timestamp;temperature;humidity
37646;DHT22;23489;49.600;6.138;2023-07-20T00:00:29;16.20;99.90
37646;DHT22;23489;49.600;6.138;2023-07-20T00:03:13;16.10;99.90
37646;DHT22;23489;49.600;6.138;2023-07-20T00:05:44;16.10;99.90
37646;DHT22;23489;49.600;6.138;2023-07-20T00:08:10;16.10;99.90
37646;DHT22;23489;49.600;6.138;2023-07-20T00:10:36;16.10;99.90
37646;DHT22;23489;49.600;6.138;2023-07-20T00:13:01;15.90;99.90
37646;DHT22;23489;49.600;6.138;2023-07-20T00:15:27;15.90;99.90
37646;DHT22;23489;49.600;6.138;2023-07-20T00:17:52;15.80;99.90
37646;DHT22;23489;49.600;6.138;2023-07-20T00:20:18;15.80;99.90
37646;DHT22;23489;49.600;6.138;2023-07-20T00:22:43;15.70;99.90
37646;DHT22;23489;49.600;6.138;2023-07-20T00:25:09;15.70;99.90
37646;DHT22;23489;49.600;6.138;2023-07-20T00:27:37;15.70;99.90
37646;DHT22;23489;49.600;6.138;2023-07-20T00:30:04;15.70;99.90
37646;DHT22;23489;49.600;6.138;2023-07-20T00:32:31;15.70;99.90
37646;DHT22;23489;49.600;6.138;2023-07-20T00:34:56;15.70;99.90
37646;DHT22;23489;49.600;6.138;2023-07-20T00:37:22;15.60;99.90
37646;DHT22;23489;49.600;6.138;2023-07-20T00:39:47;15.60;99.90
37646;DHT22;23489;49.600;6.138;2023-07-20T00:42:13;15.60;99.90
37646;DHT22;23489;49.600;6.138;2023-07-20T00:44:39;15.70;99.90
37646;DHT22;23489;49.600;6.138;2023-07-20T00:47:05;15.70;99.90
37646;DHT22;23489;49.600;6.138;2023-07-20T00:49:32;15.70;99.90
37646;DHT22;23489;49.600;6.138;2023-07-20T00:52:00;15.70;99.90
37646;DHT22;23489;49.600;6.138;2023-07-20T00:54:27;15.60;99.90
37646;DHT22;23489;49.600;6.138;2023-07-20T00:56:53;15.60;99.90
37646;DHT22;23489;49.600;6.138;2023-07-20T00:59:20;15.60;99.90
37646;DHT22;23489;49.600;6.138;2023-07-20T01:01:46;15.60;99.90
37646;DHT22;23489;49.600;6.138;2023-07-20T01:04:12;15.50;99.90
37646;DHT22;23489;49.600;6.138;2023-07-20T01:09:19;15.50;99.90
37646;DHT22;23489;49.600;6.138;2023-07-20T01:14:14;15.50;99.90
37646;DHT22;23489;49.600;6.138;2023-07-20T01:16:40;15.50;99.90
37646;DHT22;23489;49.600;6.138;2023-07-20T01:19:05;15.50;99.90
37646;DHT22;23489;49.600;6.138;2023-07-20T01:21:42;15.40;99.90
37646;DHT22;23489;49.600;6.138;2023-07-20T01:30:08;15.30;99.90
37646;DHT22;23489;49.600;6.138;2023-07-20T01:32:40;15.20;99.90
37646;DHT22;23489;49.600;6.138;2023-07-20T01:35:10;15.30;99.90
37646;DHT22;23489;49.600;6.138;2023-07-20T01:37:41;15.20;99.90
37646;DHT22;23489;49.600;6.138;2023-07-20T01:40:09;15.20;99.90
37646;DHT22;23489;49.600;6.138;2023-07-20T01:42:35;15.20;99.90
37646;DHT22;23489;49.600;6.138;2023-07-20T01:45:00;15.20;99.90
37646;DHT22;23489;49.600;6.138;2023-07-20T01:47:26;15.10;99.90
37646;DHT22;23489;49.600;6.138;2023-07-20T01:49:52;15.10;99.90
37646;DHT22;23489;49.600;6.138;2023-07-20T01:52:17;15.10;99.90
37646;DHT22;23489;49.600;6.138;2023-07-20T01:54:43;15.10;99.90
37646;DHT22;23489;49.600;6.138;2023-07-20T01:57:08;15.10;99.90
37646;DHT22;23489;49.600;6.138;2023-07-20T01:59:34;15.00;99.90
37646;DHT22;23489;49.600;6.138;2023-07-20T02:02:00;15.00;99.90
37646;DHT22;23489;49.600;6.138;2023-07-20T02:04:25;14.90;99.90
37646;DHT22;23489;49.600;6.138;2023-07-20T02:06:51;14.80;99.90
37646;DHT22;23489;49.600;6.138;2023-07-20T02:09:16;14.90;99.90
37646;DHT22;23489;49.600;6.138;2023-07-20T02:11:42;14.80;99.90
37646;DHT22;23489;49.600;6.138;2023-07-20T02:14:07;14.80;99.90
37646;DHT22;23489;49.600;6.138;2023-07-20T02:16:33;14.80;99.90
37646;DHT22;23489;49.600;6.138;2023-07-20T02:18:59;14.80;99.90
37646;DHT22;23489;49.600;6.138;2023-07-20T02:21:24;14.80;99.90
37646;DHT22;23489;49.600;6.138;2023-07-20T02:23:50;14.70;99.90
37646;DHT22;23489;49.600;6.138;2023-07-20T02:26:16;14.70;99.90
37646;DHT22;23489;49.600;6.138;2023-07-20T02:28:41;14.60;99.90
37646;DHT22;23489;49.600;6.138;2023-07-20T02:31:07;14.60;99.90
37646;DHT22;23489;49.600;6.138;2023-07-20T02:33:33;14.50;99.90
37646;DHT22;23489;49.600;6.138;2023-07-20T02:35:58;14.50;99.90
37646;DHT22;23489;49.600;6.138;2023-07-20T02:38:24;14.40;99.90
37646;DHT22;23489;49.600;6.138;2023-07-20T02:40:50;14.40;99.90
37646;DHT22;23489;49.600;6.138;2023-07-20T02:43:16;14.40;99.90
37646;DHT22;23489;49.600;6.138;2023-07-20T02:45:42;14.30;99.90
37646;DHT22;23489;49.600;6.138;2023-07-20T02:48:10;14.30;99.90
37646;DHT22;23489;49.600;6.138;2023-07-20T02:50:36;14.30;99.90
37646;DHT22;23489;49.600;6.138;2023-07-20T02:53:02;14.30;99.90
37646;DHT22;23489;49.600;6.138;2023-07-20T02:55:27;14.20;99.90
37646;DHT22;23489;49.600;6.138;2023-07-20T02:57:53;14.20;99.90
37646;DHT22;23489;49.600;6.138;2023-07-20T03:00:19;14.20;99.90
37646;DHT22;23489;49.600;6.138;2023-07-20T03:02:46;14.10;99.90
37646;DHT22;23489;49.600;6.138;2023-07-20T03:05:15;14.10;99.90
37646;DHT22;23489;49.600;6.138;2023-07-20T03:07:42;14.10;99.90
37646;DHT22;23489;49.600;6.138;2023-07-20T03:10:09;14.10;99.90
37646;DHT22;23489;49.600;6.138;2023-07-20T03:12:35;14.10;99.90
37646;DHT22;23489;49.600;6.138;2023-07-20T03:15:02;14.10;99.90
37646;DHT22;23489;49.600;6.138;2023-07-20T03:17:28;14.00;99.90
37646;DHT22;23489;49.600;6.138;2023-07-20T03:19:55;14.00;99.90
37646;DHT22;23489;49.600;6.138;2023-07-20T03:22:21;14.00;99.90
37646;DHT22;23489;49.600;6.138;2023-07-20T03:24:47;14.10;99.90
37646;DHT22;23489;49.600;6.138;2023-07-20T03:27:13;14.00;99.90
37646;DHT22;23489;49.600;6.138;2023-07-20T03:29:39;14.00;99.90
37646;DHT22;23489;49.600;6.138;2023-07-20T03:32:05;14.00;99.90
37646;DHT22;23489;49.600;6.138;2023-07-20T03:34:31;14.00;99.90
37646;DHT22;23489;49.600;6.138;2023-07-20T03:36:57;13.90;99.90
37646;DHT22;23489;49.600;6.138;2023-07-20T03:39:22;13.90;99.90
37646;DHT22;23489;49.600;6.138;2023-07-20T03:41:48;13.90;99.90
37646;DHT22;23489;49.600;6.138;2023-07-20T03:44:14;13.80;99.90
37646;DHT22;23489;49.600;6.138;2023-07-20T03:46:39;13.80;99.90
37646;DHT22;23489;49.600;6.138;2023-07-20T03:49:05;13.80;99.90
37646;DHT22;23489;49.600;6.138;2023-07-20T03:51:32;13.70;99.90
37646;DHT22;23489;49.600;6.138;2023-07-20T03:53:58;13.60;99.90
37646;DHT22;23489;49.600;6.138;2023-07-20T03:56:23;13.60;99.90
37646;DHT22;23489;49.600;6.138;2023-07-20T03:58:50;13.60;99.90
37646;DHT22;23489;49.600;6.138;2023-07-20T04:01:15;13.60;99.90
37646;DHT22;23489;49.600;6.138;2023-07-20T04:03:42;13.70;99.90
37646;DHT22;23489;49.600;6.138;2023-07-20T04:06:08;13.70;99.90
37646;DHT22;23489;49.600;6.138;2023-07-20T04:08:35;13.80;99.90
37646;DHT22;23489;49.600;6.138;2023-07-20T04:11:02;13.80;99.90
37646;DHT22;23489;49.600;6.138;2023-07-20T04:13:27;13.90;99.90
37646;DHT22;23489;49.600;6.138;2023-07-20T04:15:54;13.90;99.90
37646;DHT22;23489;49.600;6.138;2023-07-20T04:18:20;13.90;99.90
37646;DHT22;23489;49.600;6.138;2023-07-20T04:20:46;13.90;99.90
37646;DHT22;23489;49.600;6.138;2023-07-20T04:23:12;13.90;99.90
37646;DHT22;23489;49.600;6.138;2023-07-20T04:25:41;14.00;99.90
37646;DHT22;23489;49.600;6.138;2023-07-20T04:28:08;14.00;99.90
37646;DHT22;23489;49.600;6.138;2023-07-20T04:30:36;14.00;99.90
37646;DHT22;23489;49.600;6.138;2023-07-20T04:33:03;14.00;99.90
37646;DHT22;23489;49.600;6.138;2023-07-20T04:35:46;14.00;99.90
37646;DHT22;23489;49.600;6.138;2023-07-20T04:38:15;14.00;99.90
37646;DHT22;23489;49.600;6.138;2023-07-20T04:40:48;14.00;99.90
37646;DHT22;23489;49.600;6.138;2023-07-20T04:43:15;13.90;99.90
37646;DHT22;23489;49.600;6.138;2023-07-20T04:45:41;14.00;99.90
37646;DHT22;23489;49.600;6.138;2023-07-20T04:48:13;14.10;99.90
37646;DHT22;23489;49.600;6.138;2023-07-20T04:50:47;14.10;99.90
37646;DHT22;23489;49.600;6.138;2023-07-20T04:53:13;14.00;99.90
37646;DHT22;23489;49.600;6.138;2023-07-20T04:55:40;14.00;99.90
37646;DHT22;23489;49.600;6.138;2023-07-20T04:58:06;14.10;99.90
37646;DHT22;23489;49.600;6.138;2023-07-20T05:00:34;14.20;99.90
37646;DHT22;23489;49.600;6.138;2023-07-20T05:02:59;14.30;99.90
37646;DHT22;23489;49.600;6.138;2023-07-20T05:05:25;14.30;99.90
37646;DHT22;23489;49.600;6.138;2023-07-20T05:07:50;14.40;99.90
37646;DHT22;23489;49.600;6.138;2023-07-20T05:10:17;14.50;99.90
37646;DHT22;23489;49.600;6.138;2023-07-20T05:12:43;14.80;99.90
37646;DHT22;23489;49.600;6.138;2023-07-20T05:15:09;14.80;99.90
37646;DHT22;23489;49.600;6.138;2023-07-20T05:17:37;14.90;99.90
37646;DHT22;23489;49.600;6.138;2023-07-20T05:20:04;15.10;99.90
37646;DHT22;23489;49.600;6.138;2023-07-20T05:22:30;15.00;99.90
37646;DHT22;23489;49.600;6.138;2023-07-20T05:24:56;15.00;99.90
37646;DHT22;23489;49.600;6.138;2023-07-20T05:27:22;15.10;99.90
37646;DHT22;23489;49.600;6.138;2023-07-20T05:29:47;15.00;99.90
37646;DHT22;23489;49.600;6.138;2023-07-20T05:32:13;14.90;99.90
37646;DHT22;23489;49.600;6.138;2023-07-20T05:34:39;15.00;99.90
37646;DHT22;23489;49.600;6.138;2023-07-20T05:37:05;15.10;99.90
37646;DHT22;23489;49.600;6.138;2023-07-20T05:39:32;15.00;99.90
37646;DHT22;23489;49.600;6.138;2023-07-20T05:41:58;15.00;99.90
37646;DHT22;23489;49.600;6.138;2023-07-20T05:44:24;15.00;99.90
37646;DHT22;23489;49.600;6.138;2023-07-20T05:46:49;15.00;99.90
37646;DHT22;23489;49.600;6.138;2023-07-20T05:49:15;15.10;99.90
37646;DHT22;23489;49.600;6.138;2023-07-20T05:51:40;15.10;99.90
37646;DHT22;23489;49.600;6.138;2023-07-20T05:54:06;15.10;99.90
37646;DHT22;23489;49.600;6.138;2023-07-20T05:56:32;15.40;99.90
37646;DHT22;23489;49.600;6.138;2023-07-20T05:58:57;15.30;99.90
37646;DHT22;23489;49.600;6.138;2023-07-20T06:01:23;15.40;99.90
37646;DHT22;23489;49.600;6.138;2023-07-20T06:03:52;15.30;99.90
37646;DHT22;23489;49.600;6.138;2023-07-20T06:06:17;15.30;99.90
37646;DHT22;23489;49.600;6.138;2023-07-20T06:08:43;15.20;99.90
37646;DHT22;23489;49.600;6.138;2023-07-20T06:11:09;15.40;99.90
37646;DHT22;23489;49.600;6.138;2023-07-20T06:13:35;15.50;99.90
37646;DHT22;23489;49.600;6.138;2023-07-20T06:16:00;15.60;99.90
37646;DHT22;23489;49.600;6.138;2023-07-20T06:18:27;16.10;99.90
37646;DHT22;23489;49.600;6.138;2023-07-20T06:20:52;16.40;99.90
37646;DHT22;23489;49.600;6.138;2023-07-20T06:23:19;16.80;99.90
37646;DHT22;23489;49.600;6.138;2023-07-20T06:25:45;17.20;99.90
37646;DHT22;23489;49.600;6.138;2023-07-20T06:28:11;17.10;99.90
37646;DHT22;23489;49.600;6.138;2023-07-20T06:30:37;16.70;99.90
37646;DHT22;23489;49.600;6.138;2023-07-20T06:33:02;16.70;99.90
37646;DHT22;23489;49.600;6.138;2023-07-20T06:35:28;17.00;99.90
37646;DHT22;23489;49.600;6.138;2023-07-20T06:37:53;17.40;99.90
37646;DHT22;23489;49.600;6.138;2023-07-20T06:40:21;17.70;99.90
37646;DHT22;23489;49.600;6.138;2023-07-20T06:42:46;17.20;99.90
37646;DHT22;23489;49.600;6.138;2023-07-20T06:45:12;16.90;99.90
37646;DHT22;23489;49.600;6.138;2023-07-20T06:47:39;17.30;99.90
37646;DHT22;23489;49.600;6.138;2023-07-20T06:50:08;17.90;99.90
37646;DHT22;23489;49.600;6.138;2023-07-20T06:52:34;18.70;99.90
37646;DHT22;23489;49.600;6.138;2023-07-20T06:55:00;19.30;99.90
37646;DHT22;23489;49.600;6.138;2023-07-20T06:57:26;19.50;99.90
37646;DHT22;23489;49.600;6.138;2023-07-20T06:59:52;18.90;99.90
37646;DHT22;23489;49.600;6.138;2023-07-20T07:02:19;18.40;99.90
37646;DHT22;23489;49.600;6.138;2023-07-20T07:04:44;18.20;99.90
37646;DHT22;23489;49.600;6.138;2023-07-20T07:07:15;17.90;99.90
37646;DHT22;23489;49.600;6.138;2023-07-20T07:09:41;17.30;99.90
37646;DHT22;23489;49.600;6.138;2023-07-20T07:12:07;17.70;99.90
37646;DHT22;23489;49.600;6.138;2023-07-20T07:14:33;17.70;99.90
37646;DHT22;23489;49.600;6.138;2023-07-20T07:17:00;18.60;99.90
37646;DHT22;23489;49.600;6.138;2023-07-20T07:19:25;20.10;99.90
37646;DHT22;23489;49.600;6.138;2023-07-20T07:21:51;21.80;99.90
37646;DHT22;23489;49.600;6.138;2023-07-20T07:24:17;22.10;99.90
37646;DHT22;23489;49.600;6.138;2023-07-20T07:26:42;22.10;99.90
37646;DHT22;23489;49.600;6.138;2023-07-20T07:29:08;22.30;99.90
37646;DHT22;23489;49.600;6.138;2023-07-20T07:31:34;21.90;99.90
37646;DHT22;23489;49.600;6.138;2023-07-20T07:34:04;21.30;99.90
37646;DHT22;23489;49.600;6.138;2023-07-20T07:36:31;20.50;99.90
37646;DHT22;23489;49.600;6.138;2023-07-20T07:38:57;20.10;99.90
37646;DHT22;23489;49.600;6.138;2023-07-20T07:41:22;19.70;99.90
37646;DHT22;23489;49.600;6.138;2023-07-20T07:43:48;19.20;99.90
37646;DHT22;23489;49.600;6.138;2023-07-20T07:46:14;18.60;99.90
37646;DHT22;23489;49.600;6.138;2023-07-20T07:48:40;18.40;99.90
37646;DHT22;23489;49.600;6.138;2023-07-20T07:51:05;19.70;99.90
37646;DHT22;23489;49.600;6.138;2023-07-20T07:53:31;20.80;99.90
37646;DHT22;23489;49.600;6.138;2023-07-20T07:55:58;21.60;99.90
37646;DHT22;23489;49.600;6.138;2023-07-20T07:58:24;19.80;99.90
37646;DHT22;23489;49.600;6.138;2023-07-20T08:00:49;18.60;99.90
37646;DHT22;23489;49.600;6.138;2023-07-20T08:03:15;18.10;99.90
37646;DHT22;23489;49.600;6.138;2023-07-20T08:05:41;18.60;99.90
37646;DHT22;23489;49.600;6.138;2023-07-20T08:08:07;19.20;99.90
37646;DHT22;23489;49.600;6.138;2023-07-20T08:10:34;19.70;99.90
37646;DHT22;23489;49.600;6.138;2023-07-20T08:13:00;19.50;99.90
37646;DHT22;23489;49.600;6.138;2023-07-20T08:15:26;19.70;99.90
37646;DHT22;23489;49.600;6.138;2023-07-20T08:17:51;20.00;99.90
37646;DHT22;23489;49.600;6.138;2023-07-20T08:20:18;19.60;99.90
37646;DHT22;23489;49.600;6.138;2023-07-20T08:22:44;18.80;99.90
37646;DHT22;23489;49.600;6.138;2023-07-20T08:25:09;18.50;99.90
37646;DHT22;23489;49.600;6.138;2023-07-20T08:27:35;19.20;99.90
37646;DHT22;23489;49.600;6.138;2023-07-20T08:30:02;19.50;99.90
37646;DHT22;23489;49.600;6.138;2023-07-20T08:32:28;19.50;99.90
37646;DHT22;23489;49.600;6.138;2023-07-20T08:34:53;20.30;99.90
37646;DHT22;23489;49.600;6.138;2023-07-20T08:37:19;21.10;99.90
37646;DHT22;23489;49.600;6.138;2023-07-20T08:39:44;21.00;99.90
37646;DHT22;23489;49.600;6.138;2023-07-20T08:42:10;20.30;99.90
37646;DHT22;23489;49.600;6.138;2023-07-20T08:44:38;20.50;99.90
37646;DHT22;23489;49.600;6.138;2023-07-20T08:47:06;21.50;99.90
37646;DHT22;23489;49.600;6.138;2023-07-20T08:49:32;22.20;99.90
37646;DHT22;23489;49.600;6.138;2023-07-20T08:51:59;22.10;99.90
37646;DHT22;23489;49.600;6.138;2023-07-20T08:54:26;21.90;99.90
37646;DHT22;23489;49.600;6.138;2023-07-20T08:56:52;22.10;99.90
37646;DHT22;23489;49.600;6.138;2023-07-20T08:59:19;22.80;99.90
37646;DHT22;23489;49.600;6.138;2023-07-20T09:01:46;23.50;99.90
37646;DHT22;23489;49.600;6.138;2023-07-20T09:04:12;22.40;99.90
37646;DHT22;23489;49.600;6.138;2023-07-20T09:06:38;22.40;99.90
37646;DHT22;23489;49.600;6.138;2023-07-20T09:09:04;24.30;99.90
37646;DHT22;23489;49.600;6.138;2023-07-20T09:11:30;25.90;97.20
37646;DHT22;23489;49.600;6.138;2023-07-20T09:14:29;24.40;97.50
37646;DHT22;23489;49.600;6.138;2023-07-20T09:16:54;24.00;98.10
37646;DHT22;23489;49.600;6.138;2023-07-20T09:19:20;23.50;98.20
37646;DHT22;23489;49.600;6.138;2023-07-20T09:21:50;24.40;97.90
37646;DHT22;23489;49.600;6.138;2023-07-20T09:24:17;25.30;96.60
37646;DHT22;23489;49.600;6.138;2023-07-20T09:26:46;26.10;95.50
37646;DHT22;23489;49.600;6.138;2023-07-20T09:29:14;26.20;94.70
37646;DHT22;23489;49.600;6.138;2023-07-20T09:31:40;28.30;91.60
37646;DHT22;23489;49.600;6.138;2023-07-20T09:34:06;28.50;90.50
37646;DHT22;23489;49.600;6.138;2023-07-20T09:36:36;30.60;86.50
37646;DHT22;23489;49.600;6.138;2023-07-20T09:39:03;32.20;79.50
37646;DHT22;23489;49.600;6.138;2023-07-20T09:41:30;32.50;74.90
37646;DHT22;23489;49.600;6.138;2023-07-20T09:43:55;29.10;80.20
37646;DHT22;23489;49.600;6.138;2023-07-20T09:46:22;28.70;82.20
37646;DHT22;23489;49.600;6.138;2023-07-20T09:48:53;29.60;80.40
37646;DHT22;23489;49.600;6.138;2023-07-20T09:51:22;28.80;81.00
37646;DHT22;23489;49.600;6.138;2023-07-20T09:53:49;29.00;80.90
37646;DHT22;23489;49.600;6.138;2023-07-20T09:56:16;29.10;79.40
37646;DHT22;23489;49.600;6.138;2023-07-20T09:58:45;29.40;78.90
37646;DHT22;23489;49.600;6.138;2023-07-20T10:01:12;28.80;80.60
37646;DHT22;23489;49.600;6.138;2023-07-20T10:03:41;30.60;77.40
37646;DHT22;23489;49.600;6.138;2023-07-20T10:06:10;31.10;76.20
37646;DHT22;23489;49.600;6.138;2023-07-20T10:08:41;32.00;72.50
37646;DHT22;23489;49.600;6.138;2023-07-20T10:11:08;30.50;74.10
37646;DHT22;23489;49.600;6.138;2023-07-20T10:13:38;29.80;75.60
37646;DHT22;23489;49.600;6.138;2023-07-20T10:16:11;29.40;75.60
37646;DHT22;23489;49.600;6.138;2023-07-20T10:18:56;28.40;78.20
37646;DHT22;23489;49.600;6.138;2023-07-20T10:21:24;27.00;81.30
37646;DHT22;23489;49.600;6.138;2023-07-20T10:23:51;26.40;82.80
37646;DHT22;23489;49.600;6.138;2023-07-20T10:26:16;25.70;85.40
37646;DHT22;23489;49.600;6.138;2023-07-20T10:28:42;26.20;86.00
37646;DHT22;23489;49.600;6.138;2023-07-20T10:31:10;27.80;83.00
37646;DHT22;23489;49.600;6.138;2023-07-20T10:33:38;29.60;78.60
37646;DHT22;23489;49.600;6.138;2023-07-20T10:36:05;31.00;74.50
37646;DHT22;23489;49.600;6.138;2023-07-20T10:39:00;30.60;74.40
37646;DHT22;23489;49.600;6.138;2023-07-20T10:41:35;29.70;74.60
37646;DHT22;23489;49.600;6.138;2023-07-20T10:44:02;28.10;78.50
37646;DHT22;23489;49.600;6.138;2023-07-20T10:46:41;28.90;77.00
37646;DHT22;23489;49.600;6.138;2023-07-20T10:49:09;30.30;74.40
37646;DHT22;23489;49.600;6.138;2023-07-20T10:51:59;30.80;72.50
37646;DHT22;23489;49.600;6.138;2023-07-20T10:56:51;31.50;68.80
37646;DHT22;23489;49.600;6.138;2023-07-20T10:59:41;31.90;66.70
37646;DHT22;23489;49.600;6.138;2023-07-20T11:02:07;31.80;65.80
37646;DHT22;23489;49.600;6.138;2023-07-20T11:04:44;31.60;65.70
37646;DHT22;23489;49.600;6.138;2023-07-20T11:07:10;31.90;63.50
37646;DHT22;23489;49.600;6.138;2023-07-20T11:09:37;31.20;65.30
37646;DHT22;23489;49.600;6.138;2023-07-20T11:12:16;30.70;67.00
37646;DHT22;23489;49.600;6.138;2023-07-20T11:14:53;30.40;64.10
37646;DHT22;23489;49.600;6.138;2023-07-20T11:17:18;29.30;65.80
37646;DHT22;23489;49.600;6.138;2023-07-20T11:19:48;28.30;69.30
37646;DHT22;23489;49.600;6.138;2023-07-20T11:22:17;27.20;70.90
37646;DHT22;23489;49.600;6.138;2023-07-20T11:24:43;27.20;70.90
37646;DHT22;23489;49.600;6.138;2023-07-20T11:27:08;26.60;72.70
37646;DHT22;23489;49.600;6.138;2023-07-20T11:29:35;26.70;72.00
37646;DHT22;23489;49.600;6.138;2023-07-20T11:32:01;26.20;73.70
37646;DHT22;23489;49.600;6.138;2023-07-20T11:34:30;26.30;73.60
37646;DHT22;23489;49.600;6.138;2023-07-20T11:36:56;26.40;73.20
37646;DHT22;23489;49.600;6.138;2023-07-20T11:39:22;25.80;74.40
37646;DHT22;23489;49.600;6.138;2023-07-20T11:41:51;24.90;74.70
37646;DHT22;23489;49.600;6.138;2023-07-20T11:44:18;24.70;74.00
37646;DHT22;23489;49.600;6.138;2023-07-20T11:46:44;25.00;72.10
37646;DHT22;23489;49.600;6.138;2023-07-20T11:49:10;25.40;72.90
37646;DHT22;23489;49.600;6.138;2023-07-20T11:51:37;25.20;76.00
37646;DHT22;23489;49.600;6.138;2023-07-20T11:54:05;25.10;75.30
37646;DHT22;23489;49.600;6.138;2023-07-20T11:56:31;25.40;75.00
37646;DHT22;23489;49.600;6.138;2023-07-20T11:59:00;24.00;74.40
37646;DHT22;23489;49.600;6.138;2023-07-20T12:01:28;24.00;75.30
37646;DHT22;23489;49.600;6.138;2023-07-20T12:04:02;24.40;76.80
37646;DHT22;23489;49.600;6.138;2023-07-20T12:06:29;23.90;75.90
37646;DHT22;23489;49.600;6.138;2023-07-20T12:08:56;24.10;76.60
37646;DHT22;23489;49.600;6.138;2023-07-20T12:11:33;24.30;75.80
37646;DHT22;23489;49.600;6.138;2023-07-20T12:13:59;24.60;74.90
37646;DHT22;23489;49.600;6.138;2023-07-20T12:16:27;24.80;74.40
37646;DHT22;23489;49.600;6.138;2023-07-20T12:19:20;25.10;74.10
37646;DHT22;23489;49.600;6.138;2023-07-20T12:21:45;25.50;72.60
37646;DHT22;23489;49.600;6.138;2023-07-20T12:24:11;25.20;72.70
37646;DHT22;23489;49.600;6.138;2023-07-20T12:26:37;25.20;72.70
37646;DHT22;23489;49.600;6.138;2023-07-20T12:29:03;25.30;72.60
37646;DHT22;23489;49.600;6.138;2023-07-20T12:31:29;25.20;71.80
37646;DHT22;23489;49.600;6.138;2023-07-20T12:33:56;25.50;70.30
37646;DHT22;23489;49.600;6.138;2023-07-20T12:36:22;25.70;69.30
37646;DHT22;23489;49.600;6.138;2023-07-20T12:38:48;25.80;67.60
37646;DHT22;23489;49.600;6.138;2023-07-20T12:41:14;25.90;65.40
37646;DHT22;23489;49.600;6.138;2023-07-20T12:43:41;25.80;67.00
37646;DHT22;23489;49.600;6.138;2023-07-20T12:46:07;24.80;67.50
37646;DHT22;23489;49.600;6.138;2023-07-20T12:48:32;24.80;68.10
37646;DHT22;23489;49.600;6.138;2023-07-20T12:50:58;24.80;68.60
37646;DHT22;23489;49.600;6.138;2023-07-20T12:53:24;24.70;68.50
37646;DHT22;23489;49.600;6.138;2023-07-20T12:55:50;24.90;67.90
37646;DHT22;23489;49.600;6.138;2023-07-20T12:58:15;24.80;69.70
37646;DHT22;23489;49.600;6.138;2023-07-20T13:00:41;24.60;68.80
37646;DHT22;23489;49.600;6.138;2023-07-20T13:03:07;24.70;67.60
37646;DHT22;23489;49.600;6.138;2023-07-20T13:05:34;24.40;69.00
37646;DHT22;23489;49.600;6.138;2023-07-20T13:08:01;24.60;68.70
37646;DHT22;23489;49.600;6.138;2023-07-20T13:10:27;25.00;69.00
37646;DHT22;23489;49.600;6.138;2023-07-20T13:12:53;25.30;69.00
37646;DHT22;23489;49.600;6.138;2023-07-20T13:15:18;25.50;68.70
37646;DHT22;23489;49.600;6.138;2023-07-20T13:17:44;25.40;67.90
37646;DHT22;23489;49.600;6.138;2023-07-20T13:20:11;25.20;67.50
37646;DHT22;23489;49.600;6.138;2023-07-20T13:22:40;25.20;67.90
37646;DHT22;23489;49.600;6.138;2023-07-20T13:25:07;25.40;68.20
37646;DHT22;23489;49.600;6.138;2023-07-20T13:27:33;25.50;67.50
37646;DHT22;23489;49.600;6.138;2023-07-20T13:30:00;25.50;68.30
37646;DHT22;23489;49.600;6.138;2023-07-20T13:32:26;25.60;67.60
37646;DHT22;23489;49.600;6.138;2023-07-20T13:34:52;25.50;67.60
37646;DHT22;23489;49.600;6.138;2023-07-20T13:37:18;25.50;66.10
37646;DHT22;23489;49.600;6.138;2023-07-20T13:39:44;25.00;67.10
37646;DHT22;23489;49.600;6.138;2023-07-20T13:42:10;25.10;67.60
37646;DHT22;23489;49.600;6.138;2023-07-20T13:44:37;25.40;66.80
37646;DHT22;23489;49.600;6.138;2023-07-20T13:47:03;25.60;65.00
37646;DHT22;23489;49.600;6.138;2023-07-20T13:49:31;25.70;65.70
37646;DHT22;23489;49.600;6.138;2023-07-20T13:51:56;25.60;66.20
37646;DHT22;23489;49.600;6.138;2023-07-20T13:54:23;25.70;67.00
37646;DHT22;23489;49.600;6.138;2023-07-20T13:56:49;25.60;66.80
37646;DHT22;23489;49.600;6.138;2023-07-20T13:59:14;25.80;66.50
37646;DHT22;23489;49.600;6.138;2023-07-20T14:01:40;25.80;66.20
37646;DHT22;23489;49.600;6.138;2023-07-20T14:04:05;25.80;65.80
37646;DHT22;23489;49.600;6.138;2023-07-20T14:06:32;25.80;65.70
37646;DHT22;23489;49.600;6.138;2023-07-20T14:08:58;25.70;65.80
37646;DHT22;23489;49.600;6.138;2023-07-20T14:11:24;25.40;65.90
37646;DHT22;23489;49.600;6.138;2023-07-20T14:13:51;25.40;64.30
37646;DHT22;23489;49.600;6.138;2023-07-20T14:16:18;25.30;63.90
37646;DHT22;23489;49.600;6.138;2023-07-20T14:18:44;25.30;63.00
37646;DHT22;23489;49.600;6.138;2023-07-20T14:21:12;25.20;62.60
37646;DHT22;23489;49.600;6.138;2023-07-20T14:23:38;25.50;62.60
37646;DHT22;23489;49.600;6.138;2023-07-20T14:26:04;25.50;63.60
37646;DHT22;23489;49.600;6.138;2023-07-20T14:28:35;25.50;63.80
37646;DHT22;23489;49.600;6.138;2023-07-20T14:31:00;25.40;64.30
37646;DHT22;23489;49.600;6.138;2023-07-20T14:33:26;25.40;63.90
37646;DHT22;23489;49.600;6.138;2023-07-20T14:35:51;25.70;62.40
37646;DHT22;23489;49.600;6.138;2023-07-20T14:38:17;25.90;60.30
37646;DHT22;23489;49.600;6.138;2023-07-20T14:40:42;25.80;60.80
37646;DHT22;23489;49.600;6.138;2023-07-20T14:43:33;25.30;63.60
37646;DHT22;23489;49.600;6.138;2023-07-20T14:46:00;25.20;64.40
37646;DHT22;23489;49.600;6.138;2023-07-20T14:48:25;25.00;64.70
37646;DHT22;23489;49.600;6.138;2023-07-20T14:50:51;24.80;64.50
37646;DHT22;23489;49.600;6.138;2023-07-20T14:53:16;24.30;64.20
37646;DHT22;23489;49.600;6.138;2023-07-20T14:55:42;24.40;64.30
37646;DHT22;23489;49.600;6.138;2023-07-20T14:58:08;24.60;64.10
37646;DHT22;23489;49.600;6.138;2023-07-20T15:00:34;24.60;64.10
37646;DHT22;23489;49.600;6.138;2023-07-20T15:03:00;24.80;64.50
37646;DHT22;23489;49.600;6.138;2023-07-20T15:05:27;25.00;65.60
37646;DHT22;23489;49.600;6.138;2023-07-20T15:07:53;25.10;64.60
37646;DHT22;23489;49.600;6.138;2023-07-20T15:10:19;25.10;64.00
37646;DHT22;23489;49.600;6.138;2023-07-20T15:12:45;24.90;64.30
37646;DHT22;23489;49.600;6.138;2023-07-20T15:15:12;24.70;63.90
37646;DHT22;23489;49.600;6.138;2023-07-20T15:17:39;24.60;64.10
37646;DHT22;23489;49.600;6.138;2023-07-20T15:20:07;24.40;64.80
37646;DHT22;23489;49.600;6.138;2023-07-20T15:22:34;24.40;65.20
37646;DHT22;23489;49.600;6.138;2023-07-20T15:25:02;24.10;64.50
37646;DHT22;23489;49.600;6.138;2023-07-20T15:27:28;23.90;64.80
37646;DHT22;23489;49.600;6.138;2023-07-20T15:29:53;24.00;64.80
37646;DHT22;23489;49.600;6.138;2023-07-20T15:32:19;24.20;65.60
37646;DHT22;23489;49.600;6.138;2023-07-20T15:34:45;24.40;65.30
37646;DHT22;23489;49.600;6.138;2023-07-20T15:37:11;24.50;64.00
37646;DHT22;23489;49.600;6.138;2023-07-20T15:39:38;24.40;63.60
37646;DHT22;23489;49.600;6.138;2023-07-20T15:42:04;24.20;61.80